sensor_id;sensor_type;location;lat;lon;timestamp;P1;durP1;ratioP1;P2;durP2;ratioP2
5333;SDS011;2689;50.954;7.116;2023-04-25T00:00:08;10.97;;;3.70;;
5333;SDS011;2689;50.954;7.116;2023-04-25T00:02:35;11.33;;;4.90;;
5333;SDS011;2689;50.954;7.116;2023-04-25T00:05:02;9.67;;;4.43;;
5333;SDS011;2689;50.954;7.116;2023-04-25T00:07:29;8.53;;;4.80;;
5333;SDS011;2689;50.954;7.116;2023-04-25T00:09:57;12.73;;;4.93;;
5333;SDS011;2689;50.954;7.116;2023-04-25T00:12:25;7.10;;;4.30;;
5333;SDS011;2689;50.954;7.116;2023-04-25T00:14:53;12.57;;;5.30;;
5333;SDS011;2689;50.954;7.116;2023-04-25T00:17:21;12.17;;;4.80;;
5333;SDS011;2689;50.954;7.116;2023-04-25T00:19:49;10.10;;;4.40;;
5333;SDS011;2689;50.954;7.116;2023-04-25T00:22:16;15.87;;;4.90;;
5333;SDS011;2689;50.954;7.116;2023-04-25T00:24:43;16.00;;;5.20;;
5333;SDS011;2689;50.954;7.116;2023-04-25T00:27:09;8.70;;;5.37;;
5333;SDS011;2689;50.954;7.116;2023-04-25T00:29:38;10.23;;;4.50;;
5333;SDS011;2689;50.954;7.116;2023-04-25T00:32:04;8.30;;;4.17;;
5333;SDS011;2689;50.954;7.116;2023-04-25T00:34:31;9.93;;;4.80;;
5333;SDS011;2689;50.954;7.116;2023-04-25T00:36:58;9.20;;;4.90;;
5333;SDS011;2689;50.954;7.116;2023-04-25T00:39:27;11.73;;;5.40;;
5333;SDS011;2689;50.954;7.116;2023-04-25T00:41:54;12.33;;;4.43;;
5333;SDS011;2689;50.954;7.116;2023-04-25T00:44:21;11.43;;;5.00;;
5333;SDS011;2689;50.954;7.116;2023-04-25T00:46:49;13.67;;;6.03;;
5333;SDS011;2689;50.954;7.116;2023-04-25T00:49:16;8.40;;;4.80;;
5333;SDS011;2689;50.954;7.116;2023-04-25T00:51:43;11.63;;;5.60;;
5333;SDS011;2689;50.954;7.116;2023-04-25T00:54:10;10.77;;;5.90;;
5333;SDS011;2689;50.954;7.116;2023-04-25T00:56:37;8.03;;;5.53;;
5333;SDS011;2689;50.954;7.116;2023-04-25T00:59:05;7.07;;;4.33;;
5333;SDS011;2689;50.954;7.116;2023-04-25T01:01:32;14.13;;;5.43;;
5333;SDS011;2689;50.954;7.116;2023-04-25T01:04:00;16.90;;;5.63;;
5333;SDS011;2689;50.954;7.116;2023-04-25T01:06:27;12.70;;;6.40;;
5333;SDS011;2689;50.954;7.116;2023-04-25T01:08:55;15.47;;;6.30;;
5333;SDS011;2689;50.954;7.116;2023-04-25T01:11:22;17.13;;;6.20;;
5333;SDS011;2689;50.954;7.116;2023-04-25T01:13:49;10.97;;;4.73;;
5333;SDS011;2689;50.954;7.116;2023-04-25T01:16:16;16.90;;;5.80;;
5333;SDS011;2689;50.954;7.116;2023-04-25T01:18:43;15.40;;;6.07;;
5333;SDS011;2689;50.954;7.116;2023-04-25T01:21:12;13.80;;;4.90;;
5333;SDS011;2689;50.954;7.116;2023-04-25T01:23:40;9.30;;;6.10;;
5333;SDS011;2689;50.954;7.116;2023-04-25T01:26:09;11.73;;;5.80;;
5333;SDS011;2689;50.954;7.116;2023-04-25T01:28:36;17.70;;;6.10;;
5333;SDS011;2689;50.954;7.116;2023-04-25T01:31:06;13.40;;;5.70;;
5333;SDS011;2689;50.954;7.116;2023-04-25T01:33:33;14.27;;;6.33;;
5333;SDS011;2689;50.954;7.116;2023-04-25T01:36:00;18.90;;;5.50;;
5333;SDS011;2689;50.954;7.116;2023-04-25T01:38:28;20.73;;;6.33;;
5333;SDS011;2689;50.954;7.116;2023-04-25T01:40:55;12.23;;;4.97;;
5333;SDS011;2689;50.954;7.116;2023-04-25T01:43:22;13.17;;;5.50;;
5333;SDS011;2689;50.954;7.116;2023-04-25T01:45:49;14.40;;;5.43;;
5333;SDS011;2689;50.954;7.116;2023-04-25T01:48:16;11.50;;;4.57;;
5333;SDS011;2689;50.954;7.116;2023-04-25T01:50:43;10.53;;;5.27;;
5333;SDS011;2689;50.954;7.116;2023-04-25T01:53:10;12.53;;;5.00;;
5333;SDS011;2689;50.954;7.116;2023-04-25T01:55:41;9.30;;;5.17;;
5333;SDS011;2689;50.954;7.116;2023-04-25T01:58:08;16.87;;;5.50;;
5333;SDS011;2689;50.954;7.116;2023-04-25T02:00:37;16.57;;;5.10;;
5333;SDS011;2689;50.954;7.116;2023-04-25T02:03:05;15.90;;;5.80;;
5333;SDS011;2689;50.954;7.116;2023-04-25T02:05:36;14.70;;;4.83;;
5333;SDS011;2689;50.954;7.116;2023-04-25T02:08:04;15.10;;;6.77;;
5333;SDS011;2689;50.954;7.116;2023-04-25T02:10:33;11.63;;;5.20;;
5333;SDS011;2689;50.954;7.116;2023-04-25T02:13:01;15.30;;;4.97;;
5333;SDS011;2689;50.954;7.116;2023-04-25T02:15:29;12.57;;;6.43;;
5333;SDS011;2689;50.954;7.116;2023-04-25T02:17:56;8.27;;;5.17;;
5333;SDS011;2689;50.954;7.116;2023-04-25T02:20:25;13.40;;;4.77;;
5333;SDS011;2689;50.954;7.116;2023-04-25T02:22:53;16.20;;;5.60;;
5333;SDS011;2689;50.954;7.116;2023-04-25T02:25:20;10.47;;;4.80;;
5333;SDS011;2689;50.954;7.116;2023-04-25T02:27:48;17.13;;;5.37;;
5333;SDS011;2689;50.954;7.116;2023-04-25T02:30:17;14.90;;;5.10;;
5333;SDS011;2689;50.954;7.116;2023-04-25T02:32:45;8.50;;;4.47;;
5333;SDS011;2689;50.954;7.116;2023-04-25T02:35:12;17.13;;;5.77;;
5333;SDS011;2689;50.954;7.116;2023-04-25T02:37:39;12.30;;;5.27;;
5333;SDS011;2689;50.954;7.116;2023-04-25T02:40:07;14.07;;;5.20;;
5333;SDS011;2689;50.954;7.116;2023-04-25T02:42:34;13.83;;;5.50;;
5333;SDS011;2689;50.954;7.116;2023-04-25T02:45:01;15.30;;;5.27;;
5333;SDS011;2689;50.954;7.116;2023-04-25T02:47:30;15.57;;;4.80;;
5333;SDS011;2689;50.954;7.116;2023-04-25T02:49:57;11.60;;;4.80;;
5333;SDS011;2689;50.954;7.116;2023-04-25T02:52:24;7.40;;;4.50;;
5333;SDS011;2689;50.954;7.116;2023-04-25T02:54:50;11.80;;;4.60;;
5333;SDS011;2689;50.954;7.116;2023-04-25T02:57:17;11.40;;;4.37;;
5333;SDS011;2689;50.954;7.116;2023-04-25T02:59:44;15.87;;;5.77;;
5333;SDS011;2689;50.954;7.116;2023-04-25T03:02:11;9.07;;;4.40;;
5333;SDS011;2689;50.954;7.116;2023-04-25T03:04:39;7.10;;;4.90;;
5333;SDS011;2689;50.954;7.116;2023-04-25T03:07:06;14.37;;;4.70;;
5333;SDS011;2689;50.954;7.116;2023-04-25T03:09:33;9.37;;;4.50;;
5333;SDS011;2689;50.954;7.116;2023-04-25T03:12:00;10.40;;;4.57;;
5333;SDS011;2689;50.954;7.116;2023-04-25T03:14:27;9.83;;;4.50;;
5333;SDS011;2689;50.954;7.116;2023-04-25T03:16:53;8.67;;;5.00;;
5333;SDS011;2689;50.954;7.116;2023-04-25T03:19:20;9.40;;;4.37;;
5333;SDS011;2689;50.954;7.116;2023-04-25T03:21:48;9.73;;;4.43;;
5333;SDS011;2689;50.954;7.116;2023-04-25T03:24:15;11.50;;;5.77;;
5333;SDS011;2689;50.954;7.116;2023-04-25T03:26:42;13.77;;;5.20;;
5333;SDS011;2689;50.954;7.116;2023-04-25T03:29:09;10.20;;;5.30;;
5333;SDS011;2689;50.954;7.116;2023-04-25T03:31:36;9.90;;;5.10;;
5333;SDS011;2689;50.954;7.116;2023-04-25T03:34:03;11.03;;;5.10;;
5333;SDS011;2689;50.954;7.116;2023-04-25T03:36:30;12.53;;;5.27;;
5333;SDS011;2689;50.954;7.116;2023-04-25T03:38:59;8.97;;;4.60;;
5333;SDS011;2689;50.954;7.116;2023-04-25T03:41:25;7.60;;;4.80;;
5333;SDS011;2689;50.954;7.116;2023-04-25T03:43:52;8.13;;;4.70;;
5333;SDS011;2689;50.954;7.116;2023-04-25T03:46:19;7.50;;;3.83;;
5333;SDS011;2689;50.954;7.116;2023-04-25T03:48:47;10.50;;;4.67;;
5333;SDS011;2689;50.954;7.116;2023-04-25T03:51:14;12.80;;;5.23;;
5333;SDS011;2689;50.954;7.116;2023-04-25T03:53:41;8.93;;;4.13;;
5333;SDS011;2689;50.954;7.116;2023-04-25T03:56:09;13.03;;;4.47;;
5333;SDS011;2689;50.954;7.116;2023-04-25T03:58:35;9.47;;;4.10;;
5333;SDS011;2689;50.954;7.116;2023-04-25T04:01:02;9.63;;;4.30;;
5333;SDS011;2689;50.954;7.116;2023-04-25T04:03:32;10.23;;;4.10;;
5333;SDS011;2689;50.954;7.116;2023-04-25T04:06:00;9.50;;;3.93;;
5333;SDS011;2689;50.954;7.116;2023-04-25T04:08:27;9.57;;;3.90;;
5333;SDS011;2689;50.954;7.116;2023-04-25T04:10:53;8.10;;;3.57;;
5333;SDS011;2689;50.954;7.116;2023-04-25T04:13:21;9.60;;;4.10;;
5333;SDS011;2689;50.954;7.116;2023-04-25T04:15:48;8.23;;;3.70;;
5333;SDS011;2689;50.954;7.116;2023-04-25T04:18:15;5.80;;;2.80;;
5333;SDS011;2689;50.954;7.116;2023-04-25T04:20:42;7.97;;;3.73;;
5333;SDS011;2689;50.954;7.116;2023-04-25T04:23:09;7.93;;;3.97;;
5333;SDS011;2689;50.954;7.116;2023-04-25T04:25:36;4.73;;;3.23;;
5333;SDS011;2689;50.954;7.116;2023-04-25T04:28:03;8.23;;;3.53;;
5333;SDS011;2689;50.954;7.116;2023-04-25T04:30:32;14.13;;;4.90;;
5333;SDS011;2689;50.954;7.116;2023-04-25T04:33:01;10.17;;;4.17;;
5333;SDS011;2689;50.954;7.116;2023-04-25T04:35:28;9.57;;;4.43;;
5333;SDS011;2689;50.954;7.116;2023-04-25T04:37:55;9.03;;;4.50;;
5333;SDS011;2689;50.954;7.116;2023-04-25T04:40:22;14.23;;;4.60;;
5333;SDS011;2689;50.954;7.116;2023-04-25T04:42:50;9.40;;;5.97;;
5333;SDS011;2689;50.954;7.116;2023-04-25T04:45:18;8.80;;;4.60;;
5333;SDS011;2689;50.954;7.116;2023-04-25T04:47:46;10.70;;;5.50;;
5333;SDS011;2689;50.954;7.116;2023-04-25T04:50:14;8.60;;;5.67;;
5333;SDS011;2689;50.954;7.116;2023-04-25T04:52:41;11.93;;;5.00;;
5333;SDS011;2689;50.954;7.116;2023-04-25T04:55:08;11.20;;;6.30;;
5333;SDS011;2689;50.954;7.116;2023-04-25T04:57:35;10.73;;;5.60;;
5333;SDS011;2689;50.954;7.116;2023-04-25T05:00:04;13.77;;;6.50;;
5333;SDS011;2689;50.954;7.116;2023-04-25T05:02:36;12.00;;;5.90;;
5333;SDS011;2689;50.954;7.116;2023-04-25T05:05:05;14.90;;;7.17;;
5333;SDS011;2689;50.954;7.116;2023-04-25T05:07:32;11.47;;;6.43;;
5333;SDS011;2689;50.954;7.116;2023-04-25T05:09:58;17.67;;;6.57;;
5333;SDS011;2689;50.954;7.116;2023-04-25T05:12:25;14.87;;;7.67;;
5333;SDS011;2689;50.954;7.116;2023-04-25T05:14:52;15.97;;;5.50;;
5333;SDS011;2689;50.954;7.116;2023-04-25T05:17:19;11.23;;;5.47;;
5333;SDS011;2689;50.954;7.116;2023-04-25T05:19:45;13.20;;;7.03;;
5333;SDS011;2689;50.954;7.116;2023-04-25T05:22:13;16.00;;;6.93;;
5333;SDS011;2689;50.954;7.116;2023-04-25T05:24:40;14.03;;;6.70;;
5333;SDS011;2689;50.954;7.116;2023-04-25T05:27:07;10.90;;;6.60;;
5333;SDS011;2689;50.954;7.116;2023-04-25T05:29:34;10.87;;;6.33;;
5333;SDS011;2689;50.954;7.116;2023-04-25T05:32:01;15.60;;;5.90;;
5333;SDS011;2689;50.954;7.116;2023-04-25T05:34:28;15.50;;;5.40;;
5333;SDS011;2689;50.954;7.116;2023-04-25T05:36:55;14.37;;;6.33;;
5333;SDS011;2689;50.954;7.116;2023-04-25T05:39:23;17.90;;;6.93;;
5333;SDS011;2689;50.954;7.116;2023-04-25T05:41:50;18.70;;;6.90;;
5333;SDS011;2689;50.954;7.116;2023-04-25T05:44:16;16.10;;;6.60;;
5333;SDS011;2689;50.954;7.116;2023-04-25T05:46:43;14.47;;;6.63;;
5333;SDS011;2689;50.954;7.116;2023-04-25T05:49:10;14.67;;;6.80;;
5333;SDS011;2689;50.954;7.116;2023-04-25T05:51:37;17.70;;;6.53;;
5333;SDS011;2689;50.954;7.116;2023-04-25T05:54:04;15.80;;;5.40;;
5333;SDS011;2689;50.954;7.116;2023-04-25T05:56:32;22.10;;;7.30;;
5333;SDS011;2689;50.954;7.116;2023-04-25T05:58:59;13.30;;;5.60;;
5333;SDS011;2689;50.954;7.116;2023-04-25T06:01:26;15.80;;;4.40;;
5333;SDS011;2689;50.954;7.116;2023-04-25T06:03:52;18.17;;;5.70;;
5333;SDS011;2689;50.954;7.116;2023-04-25T06:06:19;19.20;;;5.20;;
5333;SDS011;2689;50.954;7.116;2023-04-25T06:08:46;13.90;;;4.97;;
5333;SDS011;2689;50.954;7.116;2023-04-25T06:11:13;9.20;;;5.40;;
5333;SDS011;2689;50.954;7.116;2023-04-25T06:13:41;22.43;;;5.77;;
5333;SDS011;2689;50.954;7.116;2023-04-25T06:16:08;15.17;;;5.23;;
5333;SDS011;2689;50.954;7.116;2023-04-25T06:18:34;16.50;;;5.23;;
5333;SDS011;2689;50.954;7.116;2023-04-25T06:21:01;14.17;;;5.10;;
5333;SDS011;2689;50.954;7.116;2023-04-25T06:23:28;18.00;;;5.00;;
5333;SDS011;2689;50.954;7.116;2023-04-25T06:25:55;11.30;;;5.00;;
5333;SDS011;2689;50.954;7.116;2023-04-25T06:28:21;18.00;;;6.00;;
5333;SDS011;2689;50.954;7.116;2023-04-25T06:30:50;14.97;;;5.97;;
5333;SDS011;2689;50.954;7.116;2023-04-25T06:33:17;18.63;;;5.50;;
5333;SDS011;2689;50.954;7.116;2023-04-25T06:35:45;16.33;;;5.53;;
5333;SDS011;2689;50.954;7.116;2023-04-25T06:38:12;18.30;;;6.40;;
5333;SDS011;2689;50.954;7.116;2023-04-25T06:40:38;16.30;;;5.20;;
5333;SDS011;2689;50.954;7.116;2023-04-25T06:43:05;16.93;;;4.87;;
5333;SDS011;2689;50.954;7.116;2023-04-25T06:45:32;11.13;;;4.80;;
5333;SDS011;2689;50.954;7.116;2023-04-25T06:48:00;14.27;;;6.00;;
5333;SDS011;2689;50.954;7.116;2023-04-25T06:50:27;9.77;;;4.40;;
5333;SDS011;2689;50.954;7.116;2023-04-25T06:52:54;15.30;;;5.20;;
5333;SDS011;2689;50.954;7.116;2023-04-25T06:55:21;13.90;;;3.87;;
5333;SDS011;2689;50.954;7.116;2023-04-25T06:57:47;16.00;;;4.37;;
5333;SDS011;2689;50.954;7.116;2023-04-25T07:00:15;11.20;;;4.90;;
5333;SDS011;2689;50.954;7.116;2023-04-25T07:02:42;19.27;;;4.47;;
5333;SDS011;2689;50.954;7.116;2023-04-25T07:05:10;14.50;;;3.97;;
5333;SDS011;2689;50.954;7.116;2023-04-25T07:07:37;13.60;;;4.37;;
5333;SDS011;2689;50.954;7.116;2023-04-25T07:10:04;17.40;;;4.50;;
5333;SDS011;2689;50.954;7.116;2023-04-25T07:12:31;16.63;;;4.50;;
5333;SDS011;2689;50.954;7.116;2023-04-25T07:14:58;13.77;;;3.13;;
5333;SDS011;2689;50.954;7.116;2023-04-25T07:17:30;10.87;;;3.83;;
5333;SDS011;2689;50.954;7.116;2023-04-25T07:19:58;10.87;;;3.27;;
5333;SDS011;2689;50.954;7.116;2023-04-25T07:22:26;13.40;;;3.83;;
5333;SDS011;2689;50.954;7.116;2023-04-25T07:24:52;12.73;;;3.87;;
5333;SDS011;2689;50.954;7.116;2023-04-25T07:27:19;12.77;;;2.87;;
5333;SDS011;2689;50.954;7.116;2023-04-25T07:29:46;18.53;;;3.80;;
5333;SDS011;2689;50.954;7.116;2023-04-25T07:32:13;10.10;;;3.50;;
5333;SDS011;2689;50.954;7.116;2023-04-25T07:34:40;19.00;;;4.13;;
5333;SDS011;2689;50.954;7.116;2023-04-25T07:37:06;23.30;;;3.20;;
5333;SDS011;2689;50.954;7.116;2023-04-25T07:39:34;11.83;;;3.73;;
5333;SDS011;2689;50.954;7.116;2023-04-25T07:42:02;8.73;;;3.80;;
5333;SDS011;2689;50.954;7.116;2023-04-25T07:44:29;10.20;;;4.23;;
5333;SDS011;2689;50.954;7.116;2023-04-25T07:46:56;10.77;;;3.40;;
5333;SDS011;2689;50.954;7.116;2023-04-25T07:49:23;10.20;;;3.73;;
5333;SDS011;2689;50.954;7.116;2023-04-25T07:51:49;10.40;;;3.97;;
5333;SDS011;2689;50.954;7.116;2023-04-25T07:54:16;12.43;;;3.70;;
5333;SDS011;2689;50.954;7.116;2023-04-25T07:56:44;15.43;;;4.07;;
5333;SDS011;2689;50.954;7.116;2023-04-25T07:59:11;10.27;;;4.80;;
5333;SDS011;2689;50.954;7.116;2023-04-25T08:01:38;16.20;;;3.90;;
5333;SDS011;2689;50.954;7.116;2023-04-25T08:04:05;8.60;;;4.00;;
5333;SDS011;2689;50.954;7.116;2023-04-25T08:06:31;13.50;;;3.87;;
5333;SDS011;2689;50.954;7.116;2023-04-25T08:08:58;10.13;;;4.73;;
5333;SDS011;2689;50.954;7.116;2023-04-25T08:11:25;7.60;;;4.17;;
5333;SDS011;2689;50.954;7.116;2023-04-25T08:13:53;10.37;;;4.70;;
5333;SDS011;2689;50.954;7.116;2023-04-25T08:16:20;9.40;;;4.47;;
5333;SDS011;2689;50.954;7.116;2023-04-25T08:18:47;19.03;;;5.50;;
5333;SDS011;2689;50.954;7.116;2023-04-25T08:21:14;10.10;;;4.37;;
5333;SDS011;2689;50.954;7.116;2023-04-25T08:23:41;10.40;;;4.17;;
5333;SDS011;2689;50.954;7.116;2023-04-25T08:26:08;8.23;;;3.27;;
5333;SDS011;2689;50.954;7.116;2023-04-25T08:28:35;9.03;;;3.50;;
5333;SDS011;2689;50.954;7.116;2023-04-25T08:31:03;10.60;;;3.00;;
5333;SDS011;2689;50.954;7.116;2023-04-25T08:33:30;7.03;;;2.90;;
5333;SDS011;2689;50.954;7.116;2023-04-25T08:35:57;6.13;;;2.93;;
5333;SDS011;2689;50.954;7.116;2023-04-25T08:38:24;12.43;;;3.77;;
5333;SDS011;2689;50.954;7.116;2023-04-25T08:40:51;10.07;;;3.50;;
5333;SDS011;2689;50.954;7.116;2023-04-25T08:43:18;9.53;;;3.23;;
5333;SDS011;2689;50.954;7.116;2023-04-25T08:45:46;6.97;;;3.00;;
5333;SDS011;2689;50.954;7.116;2023-04-25T08:48:15;9.60;;;3.30;;
5333;SDS011;2689;50.954;7.116;2023-04-25T08:50:44;14.00;;;3.80;;
5333;SDS011;2689;50.954;7.116;2023-04-25T08:53:15;14.43;;;4.43;;
5333;SDS011;2689;50.954;7.116;2023-04-25T08:55:44;11.63;;;3.83;;
5333;SDS011;2689;50.954;7.116;2023-04-25T08:58:12;8.83;;;3.73;;
5333;SDS011;2689;50.954;7.116;2023-04-25T09:00:39;13.30;;;3.77;;
5333;SDS011;2689;50.954;7.116;2023-04-25T09:03:06;9.33;;;3.67;;
5333;SDS011;2689;50.954;7.116;2023-04-25T09:05:34;9.80;;;3.20;;
5333;SDS011;2689;50.954;7.116;2023-04-25T09:08:02;10.70;;;4.07;;
5333;SDS011;2689;50.954;7.116;2023-04-25T09:10:29;11.60;;;3.50;;
5333;SDS011;2689;50.954;7.116;2023-04-25T09:13:02;7.83;;;3.33;;
5333;SDS011;2689;50.954;7.116;2023-04-25T09:15:30;11.30;;;3.83;;
5333;SDS011;2689;50.954;7.116;2023-04-25T09:17:57;14.17;;;3.47;;
5333;SDS011;2689;50.954;7.116;2023-04-25T09:20:25;10.43;;;2.60;;
5333;SDS011;2689;50.954;7.116;2023-04-25T09:23:02;9.93;;;3.17;;
5333;SDS011;2689;50.954;7.116;2023-04-25T09:25:33;11.90;;;3.17;;
5333;SDS011;2689;50.954;7.116;2023-04-25T09:28:03;12.30;;;3.77;;
5333;SDS011;2689;50.954;7.116;2023-04-25T09:30:31;12.27;;;3.10;;
5333;SDS011;2689;50.954;7.116;2023-04-25T09:33:03;7.50;;;2.60;;
5333;SDS011;2689;50.954;7.116;2023-04-25T09:35:32;10.03;;;2.90;;
5333;SDS011;2689;50.954;7.116;2023-04-25T09:38:07;6.77;;;3.43;;
5333;SDS011;2689;50.954;7.116;2023-04-25T09:40:38;7.90;;;2.70;;
5333;SDS011;2689;50.954;7.116;2023-04-25T09:43:08;8.23;;;2.70;;
5333;SDS011;2689;50.954;7.116;2023-04-25T09:45:40;6.27;;;2.10;;
5333;SDS011;2689;50.954;7.116;2023-04-25T09:48:10;8.50;;;2.97;;
5333;SDS011;2689;50.954;7.116;2023-04-25T09:50:37;10.93;;;3.57;;
5333;SDS011;2689;50.954;7.116;2023-04-25T09:53:05;7.73;;;3.00;;
5333;SDS011;2689;50.954;7.116;2023-04-25T09:55:34;6.77;;;3.33;;
5333;SDS011;2689;50.954;7.116;2023-04-25T09:58:03;6.37;;;2.93;;
5333;SDS011;2689;50.954;7.116;2023-04-25T10:00:32;8.90;;;2.83;;
5333;SDS011;2689;50.954;7.116;2023-04-25T10:03:00;11.37;;;3.80;;
5333;SDS011;2689;50.954;7.116;2023-04-25T10:05:29;8.63;;;3.27;;
5333;SDS011;2689;50.954;7.116;2023-04-25T10:07:58;9.90;;;3.37;;
5333;SDS011;2689;50.954;7.116;2023-04-25T10:10:29;10.50;;;4.47;;
5333;SDS011;2689;50.954;7.116;2023-04-25T10:13:00;4.60;;;1.70;;
5333;SDS011;2689;50.954;7.116;2023-04-25T10:15:30;6.10;;;2.70;;
5333;SDS011;2689;50.954;7.116;2023-04-25T10:17:57;6.60;;;2.37;;
5333;SDS011;2689;50.954;7.116;2023-04-25T10:20:25;10.33;;;3.03;;
5333;SDS011;2689;50.954;7.116;2023-04-25T10:22:52;5.00;;;2.03;;
5333;SDS011;2689;50.954;7.116;2023-04-25T10:25:22;9.83;;;2.57;;
5333;SDS011;2689;50.954;7.116;2023-04-25T10:27:51;12.33;;;4.70;;
5333;SDS011;2689;50.954;7.116;2023-04-25T10:30:17;14.07;;;7.70;;
5333;SDS011;2689;50.954;7.116;2023-04-25T10:32:44;9.17;;;4.50;;
5333;SDS011;2689;50.954;7.116;2023-04-25T10:35:15;7.20;;;3.73;;
5333;SDS011;2689;50.954;7.116;2023-04-25T10:37:59;7.80;;;3.07;;
5333;SDS011;2689;50.954;7.116;2023-04-25T10:40:28;6.60;;;2.50;;
5333;SDS011;2689;50.954;7.116;2023-04-25T10:43:32;6.73;;;2.30;;
5333;SDS011;2689;50.954;7.116;2023-04-25T10:46:01;6.93;;;2.30;;
5333;SDS011;2689;50.954;7.116;2023-04-25T10:48:29;5.70;;;1.90;;
5333;SDS011;2689;50.954;7.116;2023-04-25T10:51:08;8.27;;;2.83;;
5333;SDS011;2689;50.954;7.116;2023-04-25T10:53:36;12.93;;;5.50;;
5333;SDS011;2689;50.954;7.116;2023-04-25T10:56:09;8.33;;;3.40;;
5333;SDS011;2689;50.954;7.116;2023-04-25T10:58:42;5.73;;;2.60;;
5333;SDS011;2689;50.954;7.116;2023-04-25T11:01:09;8.93;;;2.80;;
5333;SDS011;2689;50.954;7.116;2023-04-25T11:03:38;5.70;;;1.90;;
5333;SDS011;2689;50.954;7.116;2023-04-25T11:06:06;7.87;;;2.70;;
5333;SDS011;2689;50.954;7.116;2023-04-25T11:08:47;7.73;;;2.93;;
5333;SDS011;2689;50.954;7.116;2023-04-25T11:11:16;11.60;;;2.70;;
5333;SDS011;2689;50.954;7.116;2023-04-25T11:13:46;6.63;;;2.00;;
5333;SDS011;2689;50.954;7.116;2023-04-25T11:16:14;7.30;;;2.57;;
5333;SDS011;2689;50.954;7.116;2023-04-25T11:18:41;7.67;;;4.17;;
5333;SDS011;2689;50.954;7.116;2023-04-25T11:21:08;5.97;;;3.10;;
5333;SDS011;2689;50.954;7.116;2023-04-25T11:23:35;10.40;;;5.10;;
5333;SDS011;2689;50.954;7.116;2023-04-25T11:26:02;15.47;;;6.40;;
5333;SDS011;2689;50.954;7.116;2023-04-25T11:28:29;4.83;;;1.60;;
5333;SDS011;2689;50.954;7.116;2023-04-25T11:30:57;8.57;;;1.90;;
5333;SDS011;2689;50.954;7.116;2023-04-25T11:33:24;7.87;;;3.30;;
5333;SDS011;2689;50.954;7.116;2023-04-25T11:35:52;4.47;;;2.17;;
5333;SDS011;2689;50.954;7.116;2023-04-25T11:38:20;6.87;;;3.47;;
5333;SDS011;2689;50.954;7.116;2023-04-25T11:40:49;7.13;;;3.33;;
5333;SDS011;2689;50.954;7.116;2023-04-25T11:43:17;6.77;;;2.27;;
5333;SDS011;2689;50.954;7.116;2023-04-25T11:45:46;6.80;;;4.60;;
5333;SDS011;2689;50.954;7.116;2023-04-25T11:48:14;11.00;;;3.27;;
5333;SDS011;2689;50.954;7.116;2023-04-25T11:50:41;9.23;;;2.50;;
5333;SDS011;2689;50.954;7.116;2023-04-25T11:53:08;7.00;;;3.17;;
5333;SDS011;2689;50.954;7.116;2023-04-25T11:55:35;7.17;;;2.50;;
5333;SDS011;2689;50.954;7.116;2023-04-25T11:58:03;4.07;;;2.00;;
5333;SDS011;2689;50.954;7.116;2023-04-25T12:00:30;10.20;;;2.70;;
5333;SDS011;2689;50.954;7.116;2023-04-25T12:02:58;2.20;;;1.47;;
5333;SDS011;2689;50.954;7.116;2023-04-25T12:05:26;5.80;;;2.77;;
5333;SDS011;2689;50.954;7.116;2023-04-25T12:07:55;3.60;;;2.43;;
5333;SDS011;2689;50.954;7.116;2023-04-25T12:10:23;6.97;;;2.80;;
5333;SDS011;2689;50.954;7.116;2023-04-25T12:12:51;3.90;;;1.77;;
5333;SDS011;2689;50.954;7.116;2023-04-25T12:15:23;6.97;;;3.00;;
5333;SDS011;2689;50.954;7.116;2023-04-25T12:17:52;6.47;;;1.90;;
5333;SDS011;2689;50.954;7.116;2023-04-25T12:20:20;9.50;;;3.70;;
5333;SDS011;2689;50.954;7.116;2023-04-25T12:22:50;3.60;;;1.90;;
5333;SDS011;2689;50.954;7.116;2023-04-25T12:28:08;6.40;;;2.53;;
5333;SDS011;2689;50.954;7.116;2023-04-25T12:30:51;7.40;;;3.50;;
5333;SDS011;2689;50.954;7.116;2023-04-25T12:33:19;5.83;;;1.67;;
5333;SDS011;2689;50.954;7.116;2023-04-25T12:35:45;4.20;;;1.73;;
5333;SDS011;2689;50.954;7.116;2023-04-25T12:38:21;5.53;;;1.90;;
5333;SDS011;2689;50.954;7.116;2023-04-25T12:40:48;6.70;;;2.30;;
5333;SDS011;2689;50.954;7.116;2023-04-25T12:43:15;9.30;;;3.60;;
5333;SDS011;2689;50.954;7.116;2023-04-25T12:45:42;5.20;;;2.87;;
5333;SDS011;2689;50.954;7.116;2023-04-25T12:48:09;5.30;;;2.47;;
5333;SDS011;2689;50.954;7.116;2023-04-25T12:50:36;5.60;;;2.40;;
5333;SDS011;2689;50.954;7.116;2023-04-25T12:53:03;3.10;;;1.90;;
5333;SDS011;2689;50.954;7.116;2023-04-25T12:55:31;4.93;;;2.23;;
5333;SDS011;2689;50.954;7.116;2023-04-25T12:57:58;7.67;;;3.10;;
5333;SDS011;2689;50.954;7.116;2023-04-25T13:00:24;9.47;;;4.10;;
5333;SDS011;2689;50.954;7.116;2023-04-25T13:02:52;7.10;;;3.50;;
5333;SDS011;2689;50.954;7.116;2023-04-25T13:05:18;6.23;;;2.00;;
5333;SDS011;2689;50.954;7.116;2023-04-25T13:07:45;5.23;;;2.10;;
5333;SDS011;2689;50.954;7.116;2023-04-25T13:10:12;6.33;;;2.43;;
5333;SDS011;2689;50.954;7.116;2023-04-25T13:12:40;4.27;;;1.40;;
5333;SDS011;2689;50.954;7.116;2023-04-25T13:15:07;13.43;;;2.67;;
5333;SDS011;2689;50.954;7.116;2023-04-25T13:17:36;7.03;;;2.30;;
5333;SDS011;2689;50.954;7.116;2023-04-25T13:20:03;4.40;;;1.80;;
5333;SDS011;2689;50.954;7.116;2023-04-25T13:22:33;8.33;;;2.87;;
5333;SDS011;2689;50.954;7.116;2023-04-25T13:25:02;4.57;;;1.70;;
5333;SDS011;2689;50.954;7.116;2023-04-25T13:27:29;4.13;;;1.90;;
5333;SDS011;2689;50.954;7.116;2023-04-25T13:29:58;3.87;;;1.83;;
5333;SDS011;2689;50.954;7.116;2023-04-25T13:32:26;2.67;;;1.87;;
5333;SDS011;2689;50.954;7.116;2023-04-25T13:34:53;4.37;;;1.70;;
5333;SDS011;2689;50.954;7.116;2023-04-25T13:37:20;6.30;;;1.67;;
5333;SDS011;2689;50.954;7.116;2023-04-25T13:39:49;7.33;;;1.97;;
5333;SDS011;2689;50.954;7.116;2023-04-25T13:42:16;4.07;;;1.90;;
5333;SDS011;2689;50.954;7.116;2023-04-25T13:44:42;7.40;;;2.70;;
5333;SDS011;2689;50.954;7.116;2023-04-25T13:47:11;7.60;;;2.30;;
5333;SDS011;2689;50.954;7.116;2023-04-25T13:49:37;5.13;;;1.60;;
5333;SDS011;2689;50.954;7.116;2023-04-25T13:52:04;7.60;;;1.93;;
5333;SDS011;2689;50.954;7.116;2023-04-25T13:54:31;4.80;;;2.13;;
5333;SDS011;2689;50.954;7.116;2023-04-25T13:56:58;7.90;;;2.77;;
5333;SDS011;2689;50.954;7.116;2023-04-25T13:59:25;5.17;;;2.67;;
5333;SDS011;2689;50.954;7.116;2023-04-25T14:01:52;7.40;;;2.30;;
5333;SDS011;2689;50.954;7.116;2023-04-25T14:04:20;4.30;;;1.90;;
5333;SDS011;2689;50.954;7.116;2023-04-25T14:06:47;4.40;;;2.10;;
5333;SDS011;2689;50.954;7.116;2023-04-25T14:09:14;4.60;;;1.90;;
5333;SDS011;2689;50.954;7.116;2023-04-25T14:11:40;4.63;;;1.97;;
5333;SDS011;2689;50.954;7.116;2023-04-25T14:14:07;7.13;;;2.30;;
5333;SDS011;2689;50.954;7.116;2023-04-25T14:16:34;4.63;;;2.03;;
5333;SDS011;2689;50.954;7.116;2023-04-25T14:19:01;4.70;;;2.33;;
5333;SDS011;2689;50.954;7.116;2023-04-25T14:21:29;7.53;;;2.40;;
5333;SDS011;2689;50.954;7.116;2023-04-25T14:23:57;7.30;;;2.67;;
5333;SDS011;2689;50.954;7.116;2023-04-25T14:26:24;8.80;;;2.30;;
5333;SDS011;2689;50.954;7.116;2023-04-25T14:28:51;5.30;;;2.10;;
5333;SDS011;2689;50.954;7.116;2023-04-25T14:31:18;7.03;;;2.90;;
5333;SDS011;2689;50.954;7.116;2023-04-25T14:33:45;7.77;;;3.23;;
5333;SDS011;2689;50.954;7.116;2023-04-25T14:36:12;6.23;;;2.63;;
5333;SDS011;2689;50.954;7.116;2023-04-25T14:38:41;4.90;;;2.70;;
5333;SDS011;2689;50.954;7.116;2023-04-25T14:41:08;3.33;;;2.10;;
5333;SDS011;2689;50.954;7.116;2023-04-25T14:43:35;5.20;;;2.10;;
5333;SDS011;2689;50.954;7.116;2023-04-25T14:46:02;6.13;;;2.50;;
5333;SDS011;2689;50.954;7.116;2023-04-25T14:48:29;7.67;;;2.67;;
5333;SDS011;2689;50.954;7.116;2023-04-25T14:50:56;8.30;;;5.07;;
5333;SDS011;2689;50.954;7.116;2023-04-25T14:53:23;4.40;;;2.13;;
5333;SDS011;2689;50.954;7.116;2023-04-25T14:55:51;6.00;;;1.77;;
5333;SDS011;2689;50.954;7.116;2023-04-25T14:58:18;3.43;;;1.83;;
5333;SDS011;2689;50.954;7.116;2023-04-25T15:00:46;3.77;;;1.83;;
5333;SDS011;2689;50.954;7.116;2023-04-25T15:03:13;4.50;;;1.53;;
5333;SDS011;2689;50.954;7.116;2023-04-25T15:05:41;4.27;;;1.90;;
5333;SDS011;2689;50.954;7.116;2023-04-25T15:08:08;4.63;;;1.40;;
5333;SDS011;2689;50.954;7.116;2023-04-25T15:10:35;4.20;;;1.57;;
5333;SDS011;2689;50.954;7.116;2023-04-25T15:13:03;5.43;;;2.00;;